Currently 60°F in French Valley, California, USA
60°F
60°F / 59°F
3 mph NW
0.00"
Wednesday, June 20, 2018 2:14 AM PDT

French Valley, California Weather Summary
Last 36 Hours

Temperature Winds Hourly Humidity Dewpoint
Time Report Norm Report Norm Max Gusts Precip. Rpt. Norm Rpt. Norm Pressure
1Wed 02:14 AM  60.2°F  61°F  3 mph NW  1 mph  5 mph  0.00"  93%  83%  58°F  56°F  29.99"
Wed 02:00 AM  60.0°F  61°F  2 mph NW  1 mph  6 mph  0.00"  93%  83%  58°F  56°F  30.00"
Wed 01:00 AM  59.7°F  62°F  calm  1 mph  none  0.00"  93%  81%  58°F  56°F  30.02"
3Wed 12:50 AM  59.4°F  62°F  calm  1 mph  none  ----  93%  81%  57°F  56°F  30.02"
2Wed 12:01 AM  60.4°F  63°F  calm  1 mph  none  ----  93%  80%  58°F  57°F  30.03"
Wed 12:00 AM  60.4°F  63°F  calm  1 mph  4 mph  0.00"  93%  80%  58°F  57°F  30.03"
Tue 11:00 PM  60.9°F  65°F  calm  1 mph  6 mph  0.00"  93%  77%  59°F  57°F  30.04"
Tue 10:00 PM  61.5°F  66°F  5 mph S  2 mph  8 mph  0.00"  92%  74%  59°F  57°F  30.04"
Tue 09:00 PM  62.7°F  68°F  5 mph S  4 mph  12 mph  0.00"  88%  68%  59°F  57°F  30.02"
Tue 08:00 PM  65.9°F  72°F  7 mph S  5 mph  15 mph  0.00"  81%  60%  60°F  57°F  29.99"
Tue 07:00 PM  71.6°F  76°F  9 mph S  7 mph  13 mph  0.00"  69%  51%  60°F  56°F  29.98"
Tue 06:00 PM  77.2°F  79°F  6 mph S  8 mph  15 mph  0.00"  58%  44%  61°F  55°F  29.96"
Tue 05:00 PM  79.8°F  82°F  7 mph SE  8 mph  15 mph  0.00"  52%  40%  60°F  54°F  29.96"
Tue 04:00 PM  80.8°F  84°F  6 mph S  9 mph  16 mph  0.00"  51%  37%  60°F  54°F  29.98"
Tue 03:00 PM  81.2°F  85°F  8 mph S  8 mph  13 mph  0.00"  49%  35%  60°F  54°F  29.99"
Tue 02:00 PM  81.3°F  85°F  6 mph SW  7 mph  16 mph  0.00"  48%  36%  59°F  54°F  30.01"
Tue 01:00 PM  80.4°F  84°F  3 mph SE  6 mph  11 mph  0.00"  46%  38%  57°F  54°F  30.02"
Tue 12:00 PM  79.5°F  82°F  1 mph SW  5 mph  10 mph  0.00"  48%  41%  57°F  55°F  30.04"
Tue 11:00 AM  73.7°F  79°F  5 mph S  4 mph  9 mph  0.00"  58%  47%  58°F  56°F  30.05"
Tue 10:00 AM  70.4°F  74°F  calm  3 mph  9 mph  0.00"  67%  56%  58°F  57°F  30.05"
Tue 09:00 AM  65.5°F  69°F  3 mph NW  2 mph  10 mph  0.00"  78%  68%  58°F  58°F  30.07"
Tue 08:00 AM  59.6°F  65°F  4 mph W  1 mph  7 mph  0.00"  95%  77%  58°F  57°F  30.08"
Tue 07:00 AM  57.3°F  61°F  calm  1 mph  4 mph  0.00"  97%  84%  56°F  56°F  30.08"
Tue 06:00 AM  56.3°F  59°F  calm  1 mph  none  0.00"  97%  86%  55°F  54°F  30.07"
Tue 05:00 AM  55.3°F  59°F  calm  calm  4 mph  0.00"  97%  86%  54°F  55°F  30.06"
Tue 04:00 AM  56.2°F  60°F  calm  calm  none  0.00"  96%  85%  55°F  55°F  30.06"
Tue 03:00 AM  56.4°F  60°F  calm  1 mph  none  0.00"  95%  84%  55°F  55°F  30.05"
Tue 02:00 AM  57.7°F  61°F  calm  1 mph  1 mph  0.00"  94%  83%  56°F  56°F  30.06"
Tue 01:00 AM  58.3°F  62°F  calm  1 mph  none  0.00"  92%  82%  56°F  56°F  30.06"
Tue 12:00 AM  59.2°F  63°F  calm  1 mph  4 mph  0.00"  91%  80%  56°F  57°F  30.08"
Mon 11:00 PM  60.2°F  65°F  2 mph SE  1 mph  6 mph  0.00"  90%  77%  57°F  57°F  30.08"
Mon 10:00 PM  61.5°F  66°F  3 mph SE  2 mph  9 mph  0.00"  88%  74%  58°F  57°F  30.08"
Mon 09:00 PM  63.3°F  68°F  6 mph S  4 mph  10 mph  0.00"  83%  69%  58°F  57°F  30.06"
Mon 08:00 PM  66.2°F  72°F  7 mph S  6 mph  13 mph  0.00"  76%  61%  58°F  57°F  30.04"
Mon 07:00 PM  68.4°F  76°F  10 mph S  7 mph  18 mph  0.00"  69%  51%  58°F  56°F  30.04"
Mon 06:00 PM  70.8°F  79°F  12 mph S  8 mph  17 mph  0.00"  64%  45%  57°F  55°F  30.02"
Mon 05:00 PM  73.7°F  82°F  5 mph SW  9 mph  18 mph  0.00"  58%  40%  58°F  54°F  30.02"
Mon 04:00 PM  77.0°F  84°F  8 mph S  9 mph  17 mph  0.00"  50%  37%  57°F  54°F  30.02"
Mon 03:00 PM  77.6°F  85°F  8 mph SW  8 mph  16 mph  0.00"  48%  36%  56°F  54°F  30.03"

  1. Current weather data. No green row appears if the current weather data is also the high or low for the current day.
  2. High temperature for the current day.
  3. Low temperature for the current day.

The French Valley, California weather pages are a service of WeatherCurrents. French Valley is located in southwestern Riverside County, California, north of Temecula, east of Murrieta, and south of Winchester. French Valley is bordered by Lake Skinner.
Copyright ©Wed Jun 20 02:14:40 PDT 2018  WeatherCurrents. All rights reserved. - Submit questions and comments - Privacy Policy

This page automatically refreshes every 10 minutes.